Bissau, Guinea-bissau
Current Conditions -  °F | °C
As of 9:00 AM on Friday 28 Nov 2014 (Local Time) from GGOV Reporting Station
Clear Clear  
Wind Chill: 73°   Ceiling: Unl
Heat Index: 73°   Visibility: 6mi
Dew Point: 66°   Wind: 9mph
Humidity: 78%   Direction: 350°N
Pressure: 29.88"   Gusts: NA
Location:  11.87°N, 15.6°W
Report Text: GGOV 280900Z 35008KT CAVOK 23/19 Q1012 NOSIG
Loading
Personal Weather Stations






























Interactive Weather Map New forecast layout! Learn more

10-Day Weather Forecast

Advertisements
Track Severe Weather on mobile